sensor_id;sensor_type;location;lat;lon;timestamp;P1;durP1;ratioP1;P2;durP2;ratioP2
78406;SDS011;67692;51.074;-1.790;2023-06-22T00:02:01;10.73;;;4.60;;
78406;SDS011;67692;51.074;-1.790;2023-06-22T00:04:27;10.43;;;4.28;;
78406;SDS011;67692;51.074;-1.790;2023-06-22T00:06:54;10.18;;;4.63;;
78406;SDS011;67692;51.074;-1.790;2023-06-22T00:09:20;13.07;;;4.85;;
78406;SDS011;67692;51.074;-1.790;2023-06-22T00:11:47;8.57;;;4.40;;
78406;SDS011;67692;51.074;-1.790;2023-06-22T00:14:14;8.85;;;4.47;;
78406;SDS011;67692;51.074;-1.790;2023-06-22T00:16:40;10.43;;;4.22;;
78406;SDS011;67692;51.074;-1.790;2023-06-22T00:19:09;9.15;;;4.75;;
78406;SDS011;67692;51.074;-1.790;2023-06-22T00:21:36;8.82;;;5.13;;
78406;SDS011;67692;51.074;-1.790;2023-06-22T00:24:04;10.00;;;4.88;;
78406;SDS011;67692;51.074;-1.790;2023-06-22T00:26:31;9.57;;;4.43;;
78406;SDS011;67692;51.074;-1.790;2023-06-22T00:28:57;13.38;;;5.20;;
78406;SDS011;67692;51.074;-1.790;2023-06-22T00:31:24;13.55;;;5.10;;
78406;SDS011;67692;51.074;-1.790;2023-06-22T00:33:51;10.52;;;5.82;;
78406;SDS011;67692;51.074;-1.790;2023-06-22T00:36:19;9.63;;;4.82;;
78406;SDS011;67692;51.074;-1.790;2023-06-22T00:38:45;13.75;;;5.32;;
78406;SDS011;67692;51.074;-1.790;2023-06-22T00:41:12;12.15;;;4.93;;
78406;SDS011;67692;51.074;-1.790;2023-06-22T00:43:39;15.07;;;5.72;;
78406;SDS011;67692;51.074;-1.790;2023-06-22T00:46:07;11.10;;;5.50;;
78406;SDS011;67692;51.074;-1.790;2023-06-22T00:48:33;13.27;;;5.65;;
78406;SDS011;67692;51.074;-1.790;2023-06-22T00:51:02;11.85;;;5.07;;
78406;SDS011;67692;51.074;-1.790;2023-06-22T00:53:30;12.70;;;5.25;;
78406;SDS011;67692;51.074;-1.790;2023-06-22T00:56:00;12.88;;;5.00;;
78406;SDS011;67692;51.074;-1.790;2023-06-22T00:58:28;8.77;;;4.30;;
78406;SDS011;67692;51.074;-1.790;2023-06-22T01:00:55;8.45;;;4.20;;
78406;SDS011;67692;51.074;-1.790;2023-06-22T01:03:22;10.02;;;4.18;;
78406;SDS011;67692;51.074;-1.790;2023-06-22T01:05:49;8.85;;;4.30;;
78406;SDS011;67692;51.074;-1.790;2023-06-22T01:08:19;9.85;;;4.03;;
78406;SDS011;67692;51.074;-1.790;2023-06-22T01:10:55;7.50;;;4.32;;
78406;SDS011;67692;51.074;-1.790;2023-06-22T01:13:28;8.07;;;4.40;;
78406;SDS011;67692;51.074;-1.790;2023-06-22T01:16:05;9.93;;;4.47;;
78406;SDS011;67692;51.074;-1.790;2023-06-22T01:18:36;9.68;;;4.88;;
78406;SDS011;67692;51.074;-1.790;2023-06-22T01:21:07;9.05;;;4.97;;
78406;SDS011;67692;51.074;-1.790;2023-06-22T01:23:50;12.77;;;5.05;;
78406;SDS011;67692;51.074;-1.790;2023-06-22T01:26:35;11.90;;;5.38;;
78406;SDS011;67692;51.074;-1.790;2023-06-22T01:29:06;10.43;;;5.28;;
78406;SDS011;67692;51.074;-1.790;2023-06-22T01:31:38;10.10;;;4.65;;
78406;SDS011;67692;51.074;-1.790;2023-06-22T01:34:06;9.30;;;4.47;;
78406;SDS011;67692;51.074;-1.790;2023-06-22T01:36:34;10.07;;;4.53;;
78406;SDS011;67692;51.074;-1.790;2023-06-22T01:39:02;9.30;;;4.18;;
78406;SDS011;67692;51.074;-1.790;2023-06-22T01:41:33;10.02;;;4.45;;
78406;SDS011;67692;51.074;-1.790;2023-06-22T01:44:01;9.07;;;4.35;;
78406;SDS011;67692;51.074;-1.790;2023-06-22T01:46:31;11.05;;;4.90;;
78406;SDS011;67692;51.074;-1.790;2023-06-22T01:48:58;11.98;;;5.35;;
78406;SDS011;67692;51.074;-1.790;2023-06-22T01:51:25;9.93;;;4.82;;
78406;SDS011;67692;51.074;-1.790;2023-06-22T01:53:52;8.50;;;4.28;;
78406;SDS011;67692;51.074;-1.790;2023-06-22T01:56:18;9.30;;;4.20;;
78406;SDS011;67692;51.074;-1.790;2023-06-22T01:58:48;11.00;;;4.47;;
78406;SDS011;67692;51.074;-1.790;2023-06-22T02:01:18;10.50;;;4.82;;
78406;SDS011;67692;51.074;-1.790;2023-06-22T02:03:52;10.55;;;4.63;;
78406;SDS011;67692;51.074;-1.790;2023-06-22T02:06:24;9.30;;;5.07;;
78406;SDS011;67692;51.074;-1.790;2023-06-22T02:09:00;8.85;;;4.30;;
78406;SDS011;67692;51.074;-1.790;2023-06-22T02:11:28;9.15;;;4.55;;
78406;SDS011;67692;51.074;-1.790;2023-06-22T02:13:57;10.32;;;4.63;;
78406;SDS011;67692;51.074;-1.790;2023-06-22T02:16:25;8.73;;;4.45;;
78406;SDS011;67692;51.074;-1.790;2023-06-22T02:18:56;15.13;;;4.93;;
78406;SDS011;67692;51.074;-1.790;2023-06-22T02:21:28;10.48;;;4.35;;
78406;SDS011;67692;51.074;-1.790;2023-06-22T02:23:55;11.85;;;4.38;;
78406;SDS011;67692;51.074;-1.790;2023-06-22T02:26:22;11.98;;;5.40;;
78406;SDS011;67692;51.074;-1.790;2023-06-22T02:28:50;9.90;;;4.43;;
78406;SDS011;67692;51.074;-1.790;2023-06-22T02:31:16;13.43;;;4.68;;
78406;SDS011;67692;51.074;-1.790;2023-06-22T02:33:43;10.25;;;4.65;;
78406;SDS011;67692;51.074;-1.790;2023-06-22T02:36:11;8.02;;;3.97;;
78406;SDS011;67692;51.074;-1.790;2023-06-22T02:38:38;10.05;;;4.85;;
78406;SDS011;67692;51.074;-1.790;2023-06-22T02:41:13;11.85;;;5.57;;
78406;SDS011;67692;51.074;-1.790;2023-06-22T02:43:43;17.17;;;5.82;;
78406;SDS011;67692;51.074;-1.790;2023-06-22T02:46:10;14.30;;;6.10;;
78406;SDS011;67692;51.074;-1.790;2023-06-22T02:48:37;11.32;;;5.22;;
78406;SDS011;67692;51.074;-1.790;2023-06-22T02:51:04;9.90;;;5.45;;
78406;SDS011;67692;51.074;-1.790;2023-06-22T02:53:32;10.65;;;5.05;;
78406;SDS011;67692;51.074;-1.790;2023-06-22T02:55:59;12.82;;;5.75;;
78406;SDS011;67692;51.074;-1.790;2023-06-22T02:58:27;14.73;;;6.18;;
78406;SDS011;67692;51.074;-1.790;2023-06-22T03:00:53;11.23;;;5.60;;
78406;SDS011;67692;51.074;-1.790;2023-06-22T03:03:20;11.38;;;5.40;;
78406;SDS011;67692;51.074;-1.790;2023-06-22T03:05:47;11.70;;;5.15;;
78406;SDS011;67692;51.074;-1.790;2023-06-22T03:08:13;12.43;;;5.68;;
78406;SDS011;67692;51.074;-1.790;2023-06-22T03:10:41;13.85;;;5.82;;
78406;SDS011;67692;51.074;-1.790;2023-06-22T03:13:08;14.38;;;5.70;;
78406;SDS011;67692;51.074;-1.790;2023-06-22T03:15:34;12.43;;;4.80;;
78406;SDS011;67692;51.074;-1.790;2023-06-22T03:18:01;10.93;;;4.97;;
78406;SDS011;67692;51.074;-1.790;2023-06-22T03:20:28;10.45;;;5.70;;
78406;SDS011;67692;51.074;-1.790;2023-06-22T03:22:58;11.60;;;4.75;;
78406;SDS011;67692;51.074;-1.790;2023-06-22T03:25:25;9.70;;;4.95;;
78406;SDS011;67692;51.074;-1.790;2023-06-22T03:27:53;12.40;;;5.38;;
78406;SDS011;67692;51.074;-1.790;2023-06-22T03:30:20;11.65;;;4.80;;
78406;SDS011;67692;51.074;-1.790;2023-06-22T03:32:46;12.35;;;4.85;;
78406;SDS011;67692;51.074;-1.790;2023-06-22T03:35:13;10.55;;;4.45;;
78406;SDS011;67692;51.074;-1.790;2023-06-22T03:37:39;10.68;;;3.78;;
78406;SDS011;67692;51.074;-1.790;2023-06-22T03:40:07;7.45;;;3.90;;
78406;SDS011;67692;51.074;-1.790;2023-06-22T03:42:34;7.63;;;3.78;;
78406;SDS011;67692;51.074;-1.790;2023-06-22T03:45:03;8.07;;;3.63;;
78406;SDS011;67692;51.074;-1.790;2023-06-22T03:47:32;6.97;;;3.53;;
78406;SDS011;67692;51.074;-1.790;2023-06-22T03:49:58;9.50;;;3.63;;
78406;SDS011;67692;51.074;-1.790;2023-06-22T03:52:25;8.43;;;3.63;;
78406;SDS011;67692;51.074;-1.790;2023-06-22T03:54:51;12.88;;;5.70;;
78406;SDS011;67692;51.074;-1.790;2023-06-22T03:57:18;13.57;;;5.53;;
78406;SDS011;67692;51.074;-1.790;2023-06-22T03:59:45;12.07;;;4.53;;
78406;SDS011;67692;51.074;-1.790;2023-06-22T04:02:13;9.25;;;4.43;;
78406;SDS011;67692;51.074;-1.790;2023-06-22T04:04:39;8.70;;;3.95;;
78406;SDS011;67692;51.074;-1.790;2023-06-22T04:07:06;8.43;;;3.80;;
78406;SDS011;67692;51.074;-1.790;2023-06-22T04:09:32;13.75;;;5.65;;
78406;SDS011;67692;51.074;-1.790;2023-06-22T04:12:01;12.90;;;5.10;;
78406;SDS011;67692;51.074;-1.790;2023-06-22T04:14:28;13.10;;;5.65;;
78406;SDS011;67692;51.074;-1.790;2023-06-22T04:16:54;9.73;;;4.78;;
78406;SDS011;67692;51.074;-1.790;2023-06-22T04:19:22;12.77;;;5.55;;
78406;SDS011;67692;51.074;-1.790;2023-06-22T04:21:49;12.45;;;5.05;;
78406;SDS011;67692;51.074;-1.790;2023-06-22T04:24:15;10.60;;;4.80;;
78406;SDS011;67692;51.074;-1.790;2023-06-22T04:26:42;12.32;;;5.15;;
78406;SDS011;67692;51.074;-1.790;2023-06-22T04:29:10;11.43;;;4.95;;
78406;SDS011;67692;51.074;-1.790;2023-06-22T04:31:37;9.68;;;4.32;;
78406;SDS011;67692;51.074;-1.790;2023-06-22T04:34:04;11.40;;;5.20;;
78406;SDS011;67692;51.074;-1.790;2023-06-22T04:36:34;11.18;;;4.55;;
78406;SDS011;67692;51.074;-1.790;2023-06-22T04:39:04;11.77;;;4.93;;
78406;SDS011;67692;51.074;-1.790;2023-06-22T04:41:31;14.52;;;5.13;;
78406;SDS011;67692;51.074;-1.790;2023-06-22T04:44:07;14.70;;;5.75;;
78406;SDS011;67692;51.074;-1.790;2023-06-22T04:46:34;17.38;;;6.82;;
78406;SDS011;67692;51.074;-1.790;2023-06-22T04:49:03;17.65;;;7.00;;
78406;SDS011;67692;51.074;-1.790;2023-06-22T04:51:37;23.60;;;6.93;;
78406;SDS011;67692;51.074;-1.790;2023-06-22T04:54:06;17.73;;;6.28;;
78406;SDS011;67692;51.074;-1.790;2023-06-22T04:56:33;15.52;;;6.90;;
78406;SDS011;67692;51.074;-1.790;2023-06-22T04:59:00;16.55;;;6.43;;
78406;SDS011;67692;51.074;-1.790;2023-06-22T05:01:28;14.32;;;6.70;;
78406;SDS011;67692;51.074;-1.790;2023-06-22T05:03:56;16.95;;;6.47;;
78406;SDS011;67692;51.074;-1.790;2023-06-22T05:06:23;20.23;;;6.90;;
78406;SDS011;67692;51.074;-1.790;2023-06-22T05:08:52;17.85;;;7.35;;
78406;SDS011;67692;51.074;-1.790;2023-06-22T05:11:22;15.65;;;6.78;;
78406;SDS011;67692;51.074;-1.790;2023-06-22T05:13:49;13.48;;;5.78;;
78406;SDS011;67692;51.074;-1.790;2023-06-22T05:16:15;20.27;;;6.30;;
78406;SDS011;67692;51.074;-1.790;2023-06-22T05:18:42;18.80;;;7.25;;
78406;SDS011;67692;51.074;-1.790;2023-06-22T05:21:09;15.38;;;7.00;;
78406;SDS011;67692;51.074;-1.790;2023-06-22T05:23:35;20.90;;;6.95;;
78406;SDS011;67692;51.074;-1.790;2023-06-22T05:26:03;19.25;;;7.43;;
78406;SDS011;67692;51.074;-1.790;2023-06-22T05:28:30;15.63;;;7.13;;
78406;SDS011;67692;51.074;-1.790;2023-06-22T05:30:56;13.70;;;6.15;;
78406;SDS011;67692;51.074;-1.790;2023-06-22T05:33:23;19.75;;;6.25;;
78406;SDS011;67692;51.074;-1.790;2023-06-22T05:35:49;17.20;;;6.25;;
78406;SDS011;67692;51.074;-1.790;2023-06-22T05:38:16;13.93;;;5.90;;
78406;SDS011;67692;51.074;-1.790;2023-06-22T05:40:43;13.85;;;6.15;;
78406;SDS011;67692;51.074;-1.790;2023-06-22T05:43:11;13.38;;;5.88;;
78406;SDS011;67692;51.074;-1.790;2023-06-22T05:45:37;13.07;;;5.55;;
78406;SDS011;67692;51.074;-1.790;2023-06-22T05:48:04;11.13;;;5.32;;
78406;SDS011;67692;51.074;-1.790;2023-06-22T05:50:31;13.18;;;5.15;;
78406;SDS011;67692;51.074;-1.790;2023-06-22T05:52:58;11.90;;;5.72;;
78406;SDS011;67692;51.074;-1.790;2023-06-22T05:55:24;11.55;;;5.70;;
78406;SDS011;67692;51.074;-1.790;2023-06-22T05:57:51;13.70;;;5.50;;
78406;SDS011;67692;51.074;-1.790;2023-06-22T06:00:19;10.77;;;5.28;;
78406;SDS011;67692;51.074;-1.790;2023-06-22T06:02:47;12.88;;;5.50;;
78406;SDS011;67692;51.074;-1.790;2023-06-22T06:05:14;14.35;;;6.35;;
78406;SDS011;67692;51.074;-1.790;2023-06-22T06:07:41;13.75;;;6.10;;
78406;SDS011;67692;51.074;-1.790;2023-06-22T06:10:08;12.00;;;6.32;;
78406;SDS011;67692;51.074;-1.790;2023-06-22T06:12:35;10.77;;;5.32;;
78406;SDS011;67692;51.074;-1.790;2023-06-22T06:15:02;12.73;;;5.53;;
78406;SDS011;67692;51.074;-1.790;2023-06-22T06:17:30;11.68;;;5.80;;
78406;SDS011;67692;51.074;-1.790;2023-06-22T06:19:58;15.95;;;6.40;;
78406;SDS011;67692;51.074;-1.790;2023-06-22T06:22:25;13.57;;;6.20;;
78406;SDS011;67692;51.074;-1.790;2023-06-22T06:24:51;11.65;;;5.88;;
78406;SDS011;67692;51.074;-1.790;2023-06-22T06:27:18;14.68;;;6.97;;
78406;SDS011;67692;51.074;-1.790;2023-06-22T06:29:44;14.07;;;6.50;;
78406;SDS011;67692;51.074;-1.790;2023-06-22T06:32:13;12.60;;;5.72;;
78406;SDS011;67692;51.074;-1.790;2023-06-22T06:34:41;15.82;;;7.43;;
78406;SDS011;67692;51.074;-1.790;2023-06-22T06:37:08;14.73;;;6.13;;
78406;SDS011;67692;51.074;-1.790;2023-06-22T06:39:35;16.25;;;6.45;;
78406;SDS011;67692;51.074;-1.790;2023-06-22T06:42:02;14.82;;;6.50;;
78406;SDS011;67692;51.074;-1.790;2023-06-22T06:44:29;14.70;;;6.25;;
78406;SDS011;67692;51.074;-1.790;2023-06-22T06:46:55;15.00;;;6.20;;
78406;SDS011;67692;51.074;-1.790;2023-06-22T06:49:22;12.45;;;6.20;;
78406;SDS011;67692;51.074;-1.790;2023-06-22T06:51:50;14.93;;;6.25;;
78406;SDS011;67692;51.074;-1.790;2023-06-22T06:54:17;16.65;;;6.05;;
78406;SDS011;67692;51.074;-1.790;2023-06-22T06:56:45;12.82;;;6.20;;
78406;SDS011;67692;51.074;-1.790;2023-06-22T06:59:13;14.38;;;6.70;;
78406;SDS011;67692;51.074;-1.790;2023-06-22T07:01:40;13.95;;;6.40;;
78406;SDS011;67692;51.074;-1.790;2023-06-22T07:04:06;13.13;;;6.43;;
78406;SDS011;67692;51.074;-1.790;2023-06-22T07:06:33;15.80;;;6.57;;
78406;SDS011;67692;51.074;-1.790;2023-06-22T07:09:01;17.02;;;6.97;;
78406;SDS011;67692;51.074;-1.790;2023-06-22T07:11:28;16.27;;;7.45;;
78406;SDS011;67692;51.074;-1.790;2023-06-22T07:13:55;17.20;;;7.60;;
78406;SDS011;67692;51.074;-1.790;2023-06-22T07:16:21;19.75;;;8.07;;
78406;SDS011;67692;51.074;-1.790;2023-06-22T07:18:50;17.42;;;7.38;;
78406;SDS011;67692;51.074;-1.790;2023-06-22T07:21:16;17.02;;;8.30;;
78406;SDS011;67692;51.074;-1.790;2023-06-22T07:23:43;18.35;;;8.93;;
78406;SDS011;67692;51.074;-1.790;2023-06-22T07:26:11;18.05;;;8.23;;
78406;SDS011;67692;51.074;-1.790;2023-06-22T07:28:38;18.70;;;8.60;;
78406;SDS011;67692;51.074;-1.790;2023-06-22T07:31:05;20.17;;;9.07;;
78406;SDS011;67692;51.074;-1.790;2023-06-22T07:33:32;18.92;;;8.10;;
78406;SDS011;67692;51.074;-1.790;2023-06-22T07:35:59;19.23;;;7.97;;
78406;SDS011;67692;51.074;-1.790;2023-06-22T07:38:25;22.42;;;8.88;;
78406;SDS011;67692;51.074;-1.790;2023-06-22T07:40:52;20.40;;;8.07;;
78406;SDS011;67692;51.074;-1.790;2023-06-22T07:43:20;19.63;;;8.38;;
78406;SDS011;67692;51.074;-1.790;2023-06-22T07:45:50;18.42;;;8.02;;
78406;SDS011;67692;51.074;-1.790;2023-06-22T07:48:19;19.40;;;8.10;;
78406;SDS011;67692;51.074;-1.790;2023-06-22T07:50:47;22.40;;;9.40;;
78406;SDS011;67692;51.074;-1.790;2023-06-22T07:53:13;23.17;;;8.60;;
78406;SDS011;67692;51.074;-1.790;2023-06-22T07:55:40;21.17;;;8.48;;
78406;SDS011;67692;51.074;-1.790;2023-06-22T07:58:07;22.00;;;8.70;;
78406;SDS011;67692;51.074;-1.790;2023-06-22T08:00:35;19.33;;;8.27;;
78406;SDS011;67692;51.074;-1.790;2023-06-22T08:03:02;16.02;;;7.10;;
78406;SDS011;67692;51.074;-1.790;2023-06-22T08:05:30;22.25;;;8.60;;
78406;SDS011;67692;51.074;-1.790;2023-06-22T08:07:57;16.58;;;8.25;;
78406;SDS011;67692;51.074;-1.790;2023-06-22T08:10:23;16.25;;;7.68;;
78406;SDS011;67692;51.074;-1.790;2023-06-22T08:12:50;18.17;;;7.70;;
78406;SDS011;67692;51.074;-1.790;2023-06-22T08:15:18;18.90;;;8.05;;
78406;SDS011;67692;51.074;-1.790;2023-06-22T08:17:46;16.50;;;7.53;;
78406;SDS011;67692;51.074;-1.790;2023-06-22T08:20:12;16.67;;;7.32;;
78406;SDS011;67692;51.074;-1.790;2023-06-22T08:22:39;19.60;;;8.25;;
78406;SDS011;67692;51.074;-1.790;2023-06-22T08:25:07;14.43;;;7.18;;
78406;SDS011;67692;51.074;-1.790;2023-06-22T08:27:34;15.25;;;8.15;;
78406;SDS011;67692;51.074;-1.790;2023-06-22T08:30:01;17.88;;;7.82;;
78406;SDS011;67692;51.074;-1.790;2023-06-22T08:32:28;17.15;;;8.90;;
78406;SDS011;67692;51.074;-1.790;2023-06-22T08:34:59;14.88;;;7.32;;
78406;SDS011;67692;51.074;-1.790;2023-06-22T08:37:25;17.75;;;8.35;;
78406;SDS011;67692;51.074;-1.790;2023-06-22T08:39:56;18.02;;;8.60;;
78406;SDS011;67692;51.074;-1.790;2023-06-22T08:42:23;21.55;;;9.70;;
78406;SDS011;67692;51.074;-1.790;2023-06-22T08:44:50;15.48;;;7.90;;
78406;SDS011;67692;51.074;-1.790;2023-06-22T08:47:17;18.60;;;8.52;;
78406;SDS011;67692;51.074;-1.790;2023-06-22T08:49:44;17.52;;;7.75;;
78406;SDS011;67692;51.074;-1.790;2023-06-22T08:52:12;15.98;;;7.63;;
78406;SDS011;67692;51.074;-1.790;2023-06-22T08:54:39;16.50;;;8.10;;
78406;SDS011;67692;51.074;-1.790;2023-06-22T08:57:06;19.85;;;8.73;;
78406;SDS011;67692;51.074;-1.790;2023-06-22T08:59:32;17.90;;;9.02;;
78406;SDS011;67692;51.074;-1.790;2023-06-22T09:01:59;16.00;;;8.02;;
78406;SDS011;67692;51.074;-1.790;2023-06-22T09:04:25;17.30;;;8.80;;
78406;SDS011;67692;51.074;-1.790;2023-06-22T09:06:52;16.63;;;8.82;;
78406;SDS011;67692;51.074;-1.790;2023-06-22T09:09:21;21.42;;;8.20;;
78406;SDS011;67692;51.074;-1.790;2023-06-22T09:11:48;15.35;;;7.47;;
78406;SDS011;67692;51.074;-1.790;2023-06-22T09:14:14;15.32;;;7.13;;
78406;SDS011;67692;51.074;-1.790;2023-06-22T09:16:41;14.15;;;7.38;;
78406;SDS011;67692;51.074;-1.790;2023-06-22T09:19:07;16.05;;;7.97;;
78406;SDS011;67692;51.074;-1.790;2023-06-22T09:21:34;16.17;;;8.10;;
78406;SDS011;67692;51.074;-1.790;2023-06-22T09:24:01;18.02;;;8.88;;
78406;SDS011;67692;51.074;-1.790;2023-06-22T09:26:29;14.60;;;7.35;;
78406;SDS011;67692;51.074;-1.790;2023-06-22T09:28:55;15.27;;;7.32;;
78406;SDS011;67692;51.074;-1.790;2023-06-22T09:31:23;14.98;;;6.90;;
78406;SDS011;67692;51.074;-1.790;2023-06-22T09:33:50;14.65;;;6.85;;
78406;SDS011;67692;51.074;-1.790;2023-06-22T09:36:18;11.63;;;5.55;;
78406;SDS011;67692;51.074;-1.790;2023-06-22T09:38:44;12.02;;;6.10;;
78406;SDS011;67692;51.074;-1.790;2023-06-22T09:41:11;11.65;;;5.95;;
78406;SDS011;67692;51.074;-1.790;2023-06-22T09:43:39;13.50;;;5.97;;
78406;SDS011;67692;51.074;-1.790;2023-06-22T09:46:05;10.13;;;5.28;;
78406;SDS011;67692;51.074;-1.790;2023-06-22T09:48:34;10.35;;;4.35;;
78406;SDS011;67692;51.074;-1.790;2023-06-22T09:51:01;16.08;;;4.93;;
78406;SDS011;67692;51.074;-1.790;2023-06-22T09:53:27;12.77;;;5.75;;
78406;SDS011;67692;51.074;-1.790;2023-06-22T09:55:54;10.98;;;4.57;;
78406;SDS011;67692;51.074;-1.790;2023-06-22T09:58:20;11.02;;;4.80;;
78406;SDS011;67692;51.074;-1.790;2023-06-22T10:00:48;11.25;;;4.35;;
78406;SDS011;67692;51.074;-1.790;2023-06-22T10:03:15;9.02;;;3.70;;
78406;SDS011;67692;51.074;-1.790;2023-06-22T10:05:42;8.38;;;3.47;;
78406;SDS011;67692;51.074;-1.790;2023-06-22T10:08:08;9.65;;;3.50;;
78406;SDS011;67692;51.074;-1.790;2023-06-22T10:10:35;8.25;;;3.15;;
78406;SDS011;67692;51.074;-1.790;2023-06-22T10:13:03;8.68;;;4.00;;
78406;SDS011;67692;51.074;-1.790;2023-06-22T10:15:35;7.22;;;2.97;;
78406;SDS011;67692;51.074;-1.790;2023-06-22T10:18:03;5.72;;;3.22;;
78406;SDS011;67692;51.074;-1.790;2023-06-22T10:20:29;5.82;;;2.63;;
78406;SDS011;67692;51.074;-1.790;2023-06-22T10:22:56;5.55;;;2.47;;
78406;SDS011;67692;51.074;-1.790;2023-06-22T10:25:23;5.97;;;2.22;;
78406;SDS011;67692;51.074;-1.790;2023-06-22T10:27:49;5.80;;;2.60;;
78406;SDS011;67692;51.074;-1.790;2023-06-22T10:30:17;6.40;;;2.20;;
78406;SDS011;67692;51.074;-1.790;2023-06-22T10:32:43;5.85;;;2.15;;
78406;SDS011;67692;51.074;-1.790;2023-06-22T10:35:11;7.45;;;2.42;;
78406;SDS011;67692;51.074;-1.790;2023-06-22T10:37:38;8.23;;;2.80;;
78406;SDS011;67692;51.074;-1.790;2023-06-22T10:40:05;5.38;;;2.38;;
78406;SDS011;67692;51.074;-1.790;2023-06-22T10:42:34;6.50;;;2.55;;
78406;SDS011;67692;51.074;-1.790;2023-06-22T10:45:00;8.32;;;2.70;;
78406;SDS011;67692;51.074;-1.790;2023-06-22T10:47:27;7.03;;;2.63;;
78406;SDS011;67692;51.074;-1.790;2023-06-22T10:49:54;7.57;;;3.20;;
78406;SDS011;67692;51.074;-1.790;2023-06-22T10:52:22;6.90;;;2.88;;
78406;SDS011;67692;51.074;-1.790;2023-06-22T10:54:48;5.32;;;2.40;;
78406;SDS011;67692;51.074;-1.790;2023-06-22T10:57:15;6.65;;;2.70;;
78406;SDS011;67692;51.074;-1.790;2023-06-22T10:59:42;7.82;;;2.50;;
78406;SDS011;67692;51.074;-1.790;2023-06-22T11:02:08;5.90;;;2.60;;
78406;SDS011;67692;51.074;-1.790;2023-06-22T11:04:35;4.00;;;2.08;;
78406;SDS011;67692;51.074;-1.790;2023-06-22T11:07:01;7.15;;;2.35;;
78406;SDS011;67692;51.074;-1.790;2023-06-22T11:09:30;4.90;;;2.70;;
78406;SDS011;67692;51.074;-1.790;2023-06-22T11:11:57;6.78;;;2.55;;
78406;SDS011;67692;51.074;-1.790;2023-06-22T11:14:24;6.85;;;2.55;;
78406;SDS011;67692;51.074;-1.790;2023-06-22T11:16:51;5.65;;;2.10;;
78406;SDS011;67692;51.074;-1.790;2023-06-22T11:19:18;5.35;;;2.53;;
78406;SDS011;67692;51.074;-1.790;2023-06-22T11:21:44;5.18;;;2.20;;
78406;SDS011;67692;51.074;-1.790;2023-06-22T11:24:11;4.32;;;2.15;;
78406;SDS011;67692;51.074;-1.790;2023-06-22T11:26:39;5.90;;;1.95;;
78406;SDS011;67692;51.074;-1.790;2023-06-22T11:29:06;5.93;;;2.22;;
78406;SDS011;67692;51.074;-1.790;2023-06-22T11:31:33;5.43;;;2.63;;
78406;SDS011;67692;51.074;-1.790;2023-06-22T11:34:00;4.03;;;1.90;;
78406;SDS011;67692;51.074;-1.790;2023-06-22T11:36:27;9.30;;;2.63;;
78406;SDS011;67692;51.074;-1.790;2023-06-22T11:38:57;6.32;;;2.38;;
78406;SDS011;67692;51.074;-1.790;2023-06-22T11:41:24;4.63;;;2.20;;
78406;SDS011;67692;51.074;-1.790;2023-06-22T11:43:52;5.03;;;2.33;;
78406;SDS011;67692;51.074;-1.790;2023-06-22T11:46:19;4.70;;;2.00;;
78406;SDS011;67692;51.074;-1.790;2023-06-22T11:48:45;4.97;;;1.90;;
78406;SDS011;67692;51.074;-1.790;2023-06-22T11:51:12;4.57;;;2.13;;
78406;SDS011;67692;51.074;-1.790;2023-06-22T11:53:39;5.45;;;2.08;;
78406;SDS011;67692;51.074;-1.790;2023-06-22T11:56:05;7.50;;;2.40;;
78406;SDS011;67692;51.074;-1.790;2023-06-22T11:58:32;4.20;;;2.00;;
78406;SDS011;67692;51.074;-1.790;2023-06-22T12:01:00;5.20;;;1.98;;
78406;SDS011;67692;51.074;-1.790;2023-06-22T12:03:27;4.45;;;2.10;;
78406;SDS011;67692;51.074;-1.790;2023-06-22T12:05:54;6.00;;;2.15;;
78406;SDS011;67692;51.074;-1.790;2023-06-22T12:08:21;6.80;;;2.30;;
78406;SDS011;67692;51.074;-1.790;2023-06-22T12:10:48;5.47;;;2.10;;
78406;SDS011;67692;51.074;-1.790;2023-06-22T12:13:15;6.47;;;2.47;;
78406;SDS011;67692;51.074;-1.790;2023-06-22T12:15:42;5.25;;;2.33;;
78406;SDS011;67692;51.074;-1.790;2023-06-22T12:18:10;3.92;;;1.83;;
78406;SDS011;67692;51.074;-1.790;2023-06-22T12:20:37;5.00;;;2.13;;
78406;SDS011;67692;51.074;-1.790;2023-06-22T12:23:04;5.65;;;2.10;;
78406;SDS011;67692;51.074;-1.790;2023-06-22T12:25:30;6.63;;;2.40;;
78406;SDS011;67692;51.074;-1.790;2023-06-22T12:27:57;5.63;;;2.00;;
78406;SDS011;67692;51.074;-1.790;2023-06-22T12:30:23;10.48;;;2.75;;
78406;SDS011;67692;51.074;-1.790;2023-06-22T12:32:50;5.50;;;2.28;;
78406;SDS011;67692;51.074;-1.790;2023-06-22T12:35:18;4.47;;;2.00;;
78406;SDS011;67692;51.074;-1.790;2023-06-22T12:37:44;4.32;;;1.92;;
78406;SDS011;67692;51.074;-1.790;2023-06-22T12:40:11;6.00;;;2.20;;
78406;SDS011;67692;51.074;-1.790;2023-06-22T12:42:38;7.03;;;2.13;;
78406;SDS011;67692;51.074;-1.790;2023-06-22T12:45:05;5.85;;;1.88;;
78406;SDS011;67692;51.074;-1.790;2023-06-22T12:47:32;5.43;;;2.22;;
78406;SDS011;67692;51.074;-1.790;2023-06-22T12:49:59;4.78;;;1.83;;
78406;SDS011;67692;51.074;-1.790;2023-06-22T12:52:27;4.22;;;1.85;;
78406;SDS011;67692;51.074;-1.790;2023-06-22T12:54:56;5.32;;;1.88;;
78406;SDS011;67692;51.074;-1.790;2023-06-22T12:57:22;8.13;;;2.08;;
78406;SDS011;67692;51.074;-1.790;2023-06-22T12:59:50;4.22;;;1.65;;
78406;SDS011;67692;51.074;-1.790;2023-06-22T13:02:17;4.82;;;1.98;;
78406;SDS011;67692;51.074;-1.790;2023-06-22T13:04:43;4.80;;;2.15;;
78406;SDS011;67692;51.074;-1.790;2023-06-22T13:07:11;8.02;;;2.20;;
78406;SDS011;67692;51.074;-1.790;2023-06-22T13:09:39;4.35;;;2.00;;
78406;SDS011;67692;51.074;-1.790;2023-06-22T13:12:06;3.70;;;1.98;;
78406;SDS011;67692;51.074;-1.790;2023-06-22T13:14:33;5.07;;;2.03;;
78406;SDS011;67692;51.074;-1.790;2023-06-22T13:16:59;3.85;;;2.00;;
78406;SDS011;67692;51.074;-1.790;2023-06-22T13:19:26;7.47;;;2.50;;
78406;SDS011;67692;51.074;-1.790;2023-06-22T13:21:57;3.92;;;1.77;;
78406;SDS011;67692;51.074;-1.790;2023-06-22T13:24:23;5.90;;;2.00;;
78406;SDS011;67692;51.074;-1.790;2023-06-22T13:26:51;7.72;;;1.90;;
78406;SDS011;67692;51.074;-1.790;2023-06-22T13:29:18;7.13;;;1.95;;
78406;SDS011;67692;51.074;-1.790;2023-06-22T13:31:44;5.82;;;2.10;;
78406;SDS011;67692;51.074;-1.790;2023-06-22T13:34:11;5.13;;;2.00;;
78406;SDS011;67692;51.074;-1.790;2023-06-22T13:36:38;4.45;;;2.13;;
78406;SDS011;67692;51.074;-1.790;2023-06-22T13:39:04;3.83;;;1.90;;
78406;SDS011;67692;51.074;-1.790;2023-06-22T13:41:31;4.88;;;1.85;;
78406;SDS011;67692;51.074;-1.790;2023-06-22T13:43:59;4.28;;;2.05;;
78406;SDS011;67692;51.074;-1.790;2023-06-22T13:46:25;4.40;;;2.05;;
78406;SDS011;67692;51.074;-1.790;2023-06-22T13:48:52;4.43;;;1.83;;
78406;SDS011;67692;51.074;-1.790;2023-06-22T13:51:18;4.88;;;1.90;;
78406;SDS011;67692;51.074;-1.790;2023-06-22T13:53:45;5.95;;;2.00;;
78406;SDS011;67692;51.074;-1.790;2023-06-22T13:56:12;5.30;;;2.00;;
78406;SDS011;67692;51.074;-1.790;2023-06-22T13:58:38;5.22;;;2.00;;
78406;SDS011;67692;51.074;-1.790;2023-06-22T14:01:06;4.43;;;2.17;;
78406;SDS011;67692;51.074;-1.790;2023-06-22T14:03:33;6.45;;;2.25;;
78406;SDS011;67692;51.074;-1.790;2023-06-22T14:05:59;4.65;;;2.00;;
78406;SDS011;67692;51.074;-1.790;2023-06-22T14:08:26;5.85;;;2.00;;
78406;SDS011;67692;51.074;-1.790;2023-06-22T14:10:54;3.97;;;1.67;;
78406;SDS011;67692;51.074;-1.790;2023-06-22T14:13:20;5.25;;;1.90;;
78406;SDS011;67692;51.074;-1.790;2023-06-22T14:15:47;5.55;;;2.10;;
78406;SDS011;67692;51.074;-1.790;2023-06-22T14:18:18;4.75;;;1.80;;
78406;SDS011;67692;51.074;-1.790;2023-06-22T14:20:44;3.88;;;1.73;;
78406;SDS011;67692;51.074;-1.790;2023-06-22T14:23:12;9.52;;;2.20;;
78406;SDS011;67692;51.074;-1.790;2023-06-22T14:25:39;7.10;;;2.50;;
78406;SDS011;67692;51.074;-1.790;2023-06-22T14:28:06;4.13;;;1.80;;